Time;durP1;ratioP1;P1;durP2;ratioP2;P2;SDS_P1;SDS_P2;PMS_P1;PMS_P2;Temp;Humidity;BMP_temperature;BMP_pressure;BME280_temperature;BME280_humidity;BME280_pressure;Samples;Min_cycle;Max_cycle;Signal;HPM_P1;HPM_P2
2022/07/06 00:00:28;;;;;;;;;;;;;;;17.67;87.96;99166.25;4697944;30;19931;-95
2022/07/06 00:02:55;;;;;;;;;;;;;;;17.65;87.88;99157.53;4684133;30;19994;-94
2022/07/06 00:05:48;;;;;;;;;;;;;;;17.63;87.86;99154.28;4684577;30;19982;-96
2022/07/06 00:08:18;;;;;;;;;;;;;;;17.59;87.88;99158.66;4694750;30;19945;-95
2022/07/06 00:10:45;;;;;;;;;;;;;;;17.58;88.13;99161.69;4716229;30;19942;-96
2022/07/06 00:13:56;;;;;;;;;;;;;;;17.55;88.31;99158.44;4666396;30;19992;-96
2022/07/06 00:16:48;;;;;;;;;;;;;;;17.56;88.27;99159.25;4696754;30;19931;-95
2022/07/06 00:19:16;;;;;;;;;;;;;;;17.54;88.15;99153.25;4696430;30;19935;-93
2022/07/06 00:21:46;;;;;;;;;;;;;;;17.49;88.23;99153.28;4700966;30;19938;-95
2022/07/06 00:24:22;;;;;;;;;;;;;;;17.51;88.52;99153.84;4701183;30;19931;-95
2022/07/06 00:26:52;;;;;;;;;;;;;;;17.49;88.28;99145.09;4692133;30;19943;-96
2022/07/06 00:32:16;;;;;;;;;;;;;;;17.43;88.26;99138.91;4716896;30;19926;-96
2022/07/06 00:34:48;;;;;;;;;;;;;;;17.48;88.49;99140.78;4717172;30;19938;-94
2022/07/06 00:37:32;;;;;;;;;;;;;;;17.52;88.14;99142.63;4683967;30;19916;-95
2022/07/06 00:40:00;;;;;;;;;;;;;;;17.57;88.14;99138.22;4659807;30;19912;-94
2022/07/06 00:42:42;;;;;;;;;;;;;;;17.52;87.95;99148.09;4687219;30;20045;-94
2022/07/06 00:45:11;;;;;;;;;;;;;;;17.57;87.91;99144.47;4652491;30;19974;-94
2022/07/06 00:47:40;;;;;;;;;;;;;;;17.58;87.86;99143.41;4665817;30;19978;-94
2022/07/06 00:50:14;;;;;;;;;;;;;;;17.59;87.47;99145.00;4665901;30;19932;-94
2022/07/06 00:52:42;;;;;;;;;;;;;;;17.55;87.73;99142.06;4651584;30;19932;-95
2022/07/06 00:55:11;;;;;;;;;;;;;;;17.50;87.52;99141.31;4638346;30;20039;-95
2022/07/06 00:57:41;;;;;;;;;;;;;;;17.39;87.78;99135.09;4654565;30;20034;-96
2022/07/06 01:00:14;;;;;;;;;;;;;;;17.35;88.10;99139.50;4653012;30;20042;-94
2022/07/06 01:02:43;;;;;;;;;;;;;;;17.37;88.24;99142.78;4641128;30;19931;-95
2022/07/06 01:05:36;;;;;;;;;;;;;;;17.38;87.98;99143.59;4654533;30;19932;-96
2022/07/06 01:08:04;;;;;;;;;;;;;;;17.33;87.99;99142.50;4655672;30;20515;-95
2022/07/06 01:10:34;;;;;;;;;;;;;;;17.29;88.17;99140.63;4658538;30;19932;-95
2022/07/06 01:13:02;;;;;;;;;;;;;;;17.29;88.53;99143.38;4645103;30;19932;-96
2022/07/06 01:15:31;;;;;;;;;;;;;;;17.32;88.30;99140.91;4689366;30;19931;-96
2022/07/06 01:18:00;;;;;;;;;;;;;;;17.32;88.18;99140.09;4679792;30;19931;-96
2022/07/06 01:20:31;;;;;;;;;;;;;;;17.33;88.29;99145.25;4676856;30;19934;-95
2022/07/06 01:23:00;;;;;;;;;;;;;;;17.39;87.84;99137.81;4673666;30;19959;-96
2022/07/06 01:25:39;;;;;;;;;;;;;;;17.44;87.78;99148.69;4693564;30;19921;-96
2022/07/06 01:28:25;;;;;;;;;;;;;;;17.50;87.37;99147.56;4648977;30;19983;-96
2022/07/06 01:31:01;;;;;;;;;;;;;;;17.54;87.18;99139.59;4646170;30;19932;-95
2022/07/06 01:33:54;;;;;;;;;;;;;;;17.54;86.97;99142.34;4711790;24;19930;-96
2022/07/06 01:36:38;;;;;;;;;;;;;;;17.57;86.84;99147.22;4716144;30;19922;-96
2022/07/06 01:46:03;;;;;;;;;;;;;;;17.29;87.47;99157.84;4837848;24;19941;-93
2022/07/06 01:48:32;;;;;;;;;;;;;;;17.40;87.28;99163.22;4723858;30;19987;-95
2022/07/06 01:51:13;;;;;;;;;;;;;;;17.41;87.19;99164.84;4725575;30;19930;-94
2022/07/06 01:53:43;;;;;;;;;;;;;;;17.44;87.08;99169.72;4726982;30;19914;-93
2022/07/06 01:56:22;;;;;;;;;;;;;;;17.43;86.95;99174.34;4713873;30;20021;-95
2022/07/06 01:59:14;;;;;;;;;;;;;;;17.37;87.11;99175.50;4731134;30;19930;-94
2022/07/06 02:01:45;;;;;;;;;;;;;;;17.29;87.63;99174.22;4698207;30;19930;-96
2022/07/06 02:04:27;;;;;;;;;;;;;;;17.26;88.02;99169.31;4711610;30;19934;-96
2022/07/06 02:07:20;;;;;;;;;;;;;;;17.28;88.24;99166.31;4698386;30;19930;-96
2022/07/06 02:10:06;;;;;;;;;;;;;;;17.27;88.52;99168.22;4724653;30;19934;-96
2022/07/06 02:12:43;;;;;;;;;;;;;;;17.28;88.59;99161.66;4716685;30;19973;-95
2022/07/06 02:15:16;;;;;;;;;;;;;;;17.29;88.75;99157.00;4699889;30;19930;-94
2022/07/06 02:17:45;;;;;;;;;;;;;;;17.35;88.65;99161.34;4716275;30;19937;-96
2022/07/06 02:20:18;;;;;;;;;;;;;;;17.47;88.19;99169.13;4705445;30;19930;-96
2022/07/06 02:23:03;;;;;;;;;;;;;;;17.52;87.78;99169.94;4746035;30;19931;-96
2022/07/06 02:26:01;;;;;;;;;;;;;;;17.55;87.82;99171.25;4733125;30;19930;-96
2022/07/06 02:28:47;;;;;;;;;;;;;;;17.61;87.52;99167.38;4724181;30;19930;-95
2022/07/06 02:31:27;;;;;;;;;;;;;;;17.66;87.40;99171.97;4719382;30;20322;-94
2022/07/06 02:34:09;;;;;;;;;;;;;;;17.65;87.35;99178.56;4740895;30;19930;-94
2022/07/06 02:36:42;;;;;;;;;;;;;;;17.61;87.51;99178.28;4755275;30;19931;-94
2022/07/06 02:39:16;;;;;;;;;;;;;;;17.58;87.63;99178.06;4728409;30;19930;-95
2022/07/06 02:41:46;;;;;;;;;;;;;;;17.55;87.64;99184.91;4728495;30;19941;-96
2022/07/06 02:44:20;;;;;;;;;;;;;;;17.58;87.67;99184.34;4731218;30;19950;-96
2022/07/06 02:46:53;;;;;;;;;;;;;;;17.64;87.89;99182.38;4761078;30;19930;-95
2022/07/06 02:49:34;;;;;;;;;;;;;;;17.72;87.51;99182.56;4854970;24;19939;-95
2022/07/06 02:52:23;;;;;;;;;;;;;;;17.73;87.70;99178.72;4748252;30;19930;-95
2022/07/06 02:55:41;;;;;;;;;;;;;;;17.74;87.77;99180.34;4763772;30;19916;-95
2022/07/06 02:58:25;;;;;;;;;;;;;;;17.75;87.62;99179.25;4784057;24;19950;-96
2022/07/06 03:04:42;;;;;;;;;;;;;;;18.05;86.87;99173.81;4777018;24;19914;-95
2022/07/06 03:08:02;;;;;;;;;;;;;;;18.23;86.30;99169.50;4769358;30;19998;-96
2022/07/06 03:11:15;;;;;;;;;;;;;;;18.37;85.96;99162.25;4720592;30;19977;-94
2022/07/06 03:14:05;;;;;;;;;;;;;;;18.52;85.54;99161.25;4692277;30;19922;-96
2022/07/06 03:17:19;;;;;;;;;;;;;;;18.62;85.45;99164.66;4704018;30;20315;-96
2022/07/06 03:19:48;;;;;;;;;;;;;;;18.76;85.20;99166.69;4680347;30;19969;-95
2022/07/06 03:25:14;;;;;;;;;;;;;;;19.00;84.31;99172.09;4683118;30;19935;-95
2022/07/06 03:27:44;;;;;;;;;;;;;;;19.13;83.88;99165.88;4673914;30;19967;-96
2022/07/06 03:30:43;;;;;;;;;;;;;;;19.23;83.50;99168.44;4691799;30;19927;-95
2022/07/06 03:33:49;;;;;;;;;;;;;;;19.34;83.16;99166.34;4704756;30;19939;-96
2022/07/06 03:39:42;;;;;;;;;;;;;;;19.60;82.12;99165.94;4704439;30;20421;-92
2022/07/06 03:42:13;;;;;;;;;;;;;;;19.64;81.81;99164.22;4708386;30;19931;-95
2022/07/06 03:44:42;;;;;;;;;;;;;;;19.68;81.55;99170.75;4692019;30;19942;-95
2022/07/06 03:47:11;;;;;;;;;;;;;;;19.80;81.41;99176.56;4711431;30;19976;-94
2022/07/06 03:49:48;;;;;;;;;;;;;;;19.95;80.84;99172.72;4738823;30;19957;-92
2022/07/06 03:52:18;;;;;;;;;;;;;;;20.04;80.19;99172.84;4738316;30;19930;-95
2022/07/06 03:55:04;;;;;;;;;;;;;;;20.06;79.60;99187.06;4752085;24;19934;-95
2022/07/06 03:57:34;;;;;;;;;;;;;;;20.10;79.99;99177.09;4720202;30;19934;-88
2022/07/06 04:00:05;;;;;;;;;;;;;;;20.16;80.20;99164.94;4702405;30;19931;-93
2022/07/06 04:02:40;;;;;;;;;;;;;;;20.10;80.05;99171.63;4718894;30;19930;-89
2022/07/06 04:05:13;;;;;;;;;;;;;;;20.06;80.18;99174.16;4759783;24;20417;-92
2022/07/06 04:07:40;;;;;;;;;;;;;;;20.13;80.03;99171.03;4719891;30;19977;-91
2022/07/06 04:10:15;;;;;;;;;;;;;;;20.22;79.45;99165.66;4701997;30;19934;-91
2022/07/06 04:12:54;;;;;;;;;;;;;;;20.34;79.01;99176.91;4378126;30;10000419;-94
2022/07/06 04:15:22;;;;;;;;;;;;;;;20.45;78.70;99166.56;4701921;30;20029;-96
2022/07/06 04:18:06;;;;;;;;;;;;;;;20.52;78.25;99166.97;4705531;30;20033;-94
2022/07/06 04:20:45;;;;;;;;;;;;;;;20.57;78.07;99169.63;4717289;30;19938;-87
2022/07/06 04:23:15;;;;;;;;;;;;;;;20.70;77.85;99162.50;4714972;30;19931;-90
2022/07/06 04:26:07;;;;;;;;;;;;;;;20.84;77.50;99163.28;4700261;30;19993;-92
2022/07/06 04:28:40;;;;;;;;;;;;;;;21.01;76.67;99162.59;4716263;30;19930;-92
2022/07/06 04:31:17;;;;;;;;;;;;;;;21.13;76.42;99170.31;4692931;30;20010;-95
2022/07/06 04:33:52;;;;;;;;;;;;;;;21.21;75.50;99167.63;4690907;30;19930;-92
2022/07/06 04:36:43;;;;;;;;;;;;;;;21.30;75.21;99169.63;4715520;30;19961;-96
2022/07/06 04:39:34;;;;;;;;;;;;;;;21.45;74.54;99166.53;4721437;30;19931;-94
2022/07/06 04:49:01;;;;;;;;;;;;;;;21.85;73.51;99158.38;4865591;24;19941;-91
2022/07/06 04:51:31;;;;;;;;;;;;;;;21.97;73.05;99161.34;4727402;30;19980;-92
2022/07/06 04:53:58;;;;;;;;;;;;;;;22.12;73.07;99160.09;4726245;30;19970;-92
2022/07/06 04:56:26;;;;;;;;;;;;;;;22.30;72.25;99155.50;4728361;30;19965;-92
2022/07/06 04:58:55;;;;;;;;;;;;;;;22.41;71.66;99159.59;4723368;30;20437;-92
2022/07/06 05:01:31;;;;;;;;;;;;;;;22.47;71.74;99157.50;4726622;30;20013;-94
2022/07/06 05:04:47;;;;;;;;;;;;;;;22.62;71.00;99148.81;4735054;30;19969;-96
2022/07/06 05:07:58;;;;;;;;;;;;;;;22.79;70.90;99148.03;4745618;30;19914;-94
2022/07/06 05:11:48;;;;;;;;;;;;;;;22.97;70.51;99142.53;5067915;24;19953;-96
2022/07/06 05:15:27;;;;;;;;;;;;;;;23.12;69.36;99145.63;4722632;30;19930;-94
2022/07/06 05:18:34;;;;;;;;;;;;;;;23.30;68.47;99143.69;4765426;24;19922;-93
2022/07/06 05:21:32;;;;;;;;;;;;;;;23.49;67.65;99148.81;5386530;24;1419995;-96
2022/07/06 05:24:18;;;;;;;;;;;;;;;23.54;67.41;99139.59;4723674;30;19940;-95
2022/07/06 05:26:49;;;;;;;;;;;;;;;23.68;66.61;99139.41;4803883;24;19956;-95
2022/07/06 05:33:00;;;;;;;;;;;;;;;23.96;65.86;99137.06;4910314;24;19930;-92
2022/07/06 05:35:30;;;;;;;;;;;;;;;24.06;65.38;99133.94;4707225;30;19930;-90
2022/07/06 05:38:27;;;;;;;;;;;;;;;24.17;65.21;99137.13;4706614;30;20036;-93
2022/07/06 05:44:24;;;;;;;;;;;;;;;24.31;64.26;99140.47;4744128;30;19933;-89
2022/07/06 05:50:11;;;;;;;;;;;;;;;24.39;63.69;99136.84;4837471;24;20214;-90
2022/07/06 05:52:38;;;;;;;;;;;;;;;24.58;62.15;99143.91;4724458;30;19930;-92
2022/07/06 05:56:06;;;;;;;;;;;;;;;24.70;60.33;99140.44;5049753;24;19934;-95
2022/07/06 05:59:04;;;;;;;;;;;;;;;24.84;59.41;99141.78;4996942;24;19935;-93
2022/07/06 06:01:55;;;;;;;;;;;;;;;24.91;58.02;99138.47;4701217;30;19931;-91
2022/07/06 06:04:24;;;;;;;;;;;;;;;25.04;57.75;99140.19;4706223;30;20454;-94
2022/07/06 06:06:54;;;;;;;;;;;;;;;25.19;57.81;99137.97;4683009;30;19966;-93
2022/07/06 06:09:45;;;;;;;;;;;;;;;25.23;58.38;99141.66;4647760;30;19959;-92
2022/07/06 06:22:10;;;;;;;;;;;;;;;25.01;54.06;99146.34;4844398;24;19934;-92
2022/07/06 06:24:43;;;;;;;;;;;;;;;25.01;53.77;99142.78;4726303;30;19930;-92
2022/07/06 06:27:18;;;;;;;;;;;;;;;25.13;53.70;99133.78;4704305;30;19942;-93
2022/07/06 06:30:02;;;;;;;;;;;;;;;25.21;54.14;99138.44;4744769;30;19964;-92
2022/07/06 06:32:30;;;;;;;;;;;;;;;25.29;54.25;99130.09;4736681;30;19976;-88
2022/07/06 06:35:04;;;;;;;;;;;;;;;25.46;54.49;99131.84;4750068;30;19996;-91
2022/07/06 06:37:34;;;;;;;;;;;;;;;25.63;54.49;99130.06;4752295;30;19934;-90
2022/07/06 06:40:08;;;;;;;;;;;;;;;25.72;54.79;99130.75;4755976;30;19955;-94
2022/07/06 06:42:38;;;;;;;;;;;;;;;25.69;54.74;99126.72;4732583;30;19930;-93
2022/07/06 06:45:12;;;;;;;;;;;;;;;25.73;54.92;99135.97;4739316;30;19977;-94
2022/07/06 06:47:40;;;;;;;;;;;;;;;25.72;54.74;99130.75;4736808;30;19956;-94
2022/07/06 06:50:11;;;;;;;;;;;;;;;25.70;54.20;99127.53;4731523;30;20508;-95
2022/07/06 06:52:54;;;;;;;;;;;;;;;25.89;54.54;99122.31;4761613;30;20405;-94
2022/07/06 06:58:29;;;;;;;;;;;;;;;26.01;51.64;99123.47;4685627;30;19931;-94
2022/07/06 07:01:18;;;;;;;;;;;;;;;26.15;52.47;99138.56;4672462;30;19950;-96
2022/07/06 07:04:05;;;;;;;;;;;;;;;26.15;51.44;99137.75;4963360;24;19934;-95
2022/07/06 07:10:11;;;;;;;;;;;;;;;25.82;52.21;99135.84;5082343;24;21102;-94
2022/07/06 07:13:08;;;;;;;;;;;;;;;25.92;51.66;99138.19;5038377;24;19914;-96
2022/07/06 07:16:24;;;;;;;;;;;;;;;25.87;52.43;99138.41;4746284;30;20013;-96
2022/07/06 07:20:37;;;;;;;;;;;;;;;26.08;51.83;99138.34;4708452;30;19937;-96
2022/07/06 07:27:38;;;;;;;;;;;;;;;26.26;52.33;99138.13;4718712;30;19935;-96
2022/07/06 07:33:27;;;;;;;;;;;;;;;26.66;52.15;99138.22;4785470;30;19929;-96
2022/07/06 07:39:29;;;;;;;;;;;;;;;26.77;51.46;99133.81;4691713;30;19927;-96
2022/07/06 07:42:38;;;;;;;;;;;;;;;26.66;52.40;99135.44;4591076;31;19939;-96
2022/07/06 07:45:08;;;;;;;;;;;;;;;26.48;52.44;99142.34;4624339;31;20444;-95
2022/07/06 07:47:39;;;;;;;;;;;;;;;26.59;52.32;99121.41;4596976;31;20634;-91
2022/07/06 07:50:18;;;;;;;;;;;;;;;26.89;52.50;99138.53;4621612;31;19938;-96
2022/07/06 07:52:47;;;;;;;;;;;;;;;26.86;52.81;99121.78;4614929;31;19964;-96
2022/07/06 07:56:36;;;;;;;;;;;;;;;26.96;52.29;99122.09;4650027;30;19933;-96
2022/07/06 07:59:48;;;;;;;;;;;;;;;27.08;51.97;99131.53;4808969;24;19946;-95
2022/07/06 08:03:05;;;;;;;;;;;;;;;27.19;51.66;99132.66;4876290;24;19929;-96
2022/07/06 08:10:22;;;;;;;;;;;;;;;27.62;50.63;99129.09;4701622;30;19977;-96
2022/07/06 08:13:36;;;;;;;;;;;;;;;27.74;50.87;99130.22;4607471;31;19940;-96
2022/07/06 08:16:50;;;;;;;;;;;;;;;27.98;49.58;99132.84;4602110;31;20027;-96
2022/07/06 08:19:42;;;;;;;;;;;;;;;28.00;49.70;99124.97;4611191;31;19933;-96
2022/07/06 08:22:55;;;;;;;;;;;;;;;27.78;50.23;99133.88;4697496;24;19930;-95
2022/07/06 08:30:09;;;;;;;;;;;;;;;28.21;49.36;99121.13;4665860;30;19932;-96
2022/07/06 08:33:16;;;;;;;;;;;;;;;28.25;49.23;99127.53;4665184;30;19947;-96
2022/07/06 08:36:07;;;;;;;;;;;;;;;28.94;48.18;99122.38;4649586;30;19916;-96
2022/07/06 08:39:14;;;;;;;;;;;;;;;29.74;46.19;99120.00;4639437;30;20030;-96
2022/07/06 08:42:32;;;;;;;;;;;;;;;30.08;45.29;99121.00;4663561;30;19932;-96
2022/07/06 08:45:55;;;;;;;;;;;;;;;;;;;;;
2022/07/06 08:48:49;;;;;;;;;;;;;;;27.88;49.07;99131.41;4651182;30;19932;-96
2022/07/06 08:52:03;;;;;;;;;;;;;;;28.28;48.49;99119.31;4655963;30;19959;-96
2022/07/06 08:55:03;;;;;;;;;;;;;;;28.45;47.55;99107.03;4637383;31;19924;-96
2022/07/06 08:57:57;;;;;;;;;;;;;;;29.62;45.94;99107.06;4673899;30;19932;-95
2022/07/06 09:01:24;;;;;;;;;;;;;;;29.90;45.87;99106.78;4667678;30;19959;-94
2022/07/06 09:07:34;;;;;;;;;;;;;;;30.42;44.60;99099.69;4335824;30;10001539;-93
2022/07/06 09:10:30;;;;;;;;;;;;;;;30.53;43.91;99099.03;4636633;30;19931;-96
2022/07/06 09:13:08;;;;;;;;;;;;;;;30.77;41.68;99109.72;4662957;30;20022;-94
2022/07/06 09:15:49;;;;;;;;;;;;;;;31.38;40.71;99099.34;4652803;30;19958;-92
2022/07/06 09:18:27;;;;;;;;;;;;;;;31.94;39.69;99101.09;4647792;30;19949;-92
2022/07/06 09:20:54;;;;;;;;;;;;;;;32.10;40.07;99094.44;4676558;30;19986;-92
2022/07/06 09:23:22;;;;;;;;;;;;;;;31.91;39.72;99106.66;4633036;30;20411;-93
2022/07/06 09:25:50;;;;;;;;;;;;;;;32.28;39.38;99106.53;4644405;30;19939;-92
2022/07/06 09:28:17;;;;;;;;;;;;;;;32.13;39.86;99104.84;4666535;30;20058;-91
2022/07/06 09:30:44;;;;;;;;;;;;;;;32.68;38.81;99093.66;4649990;30;19942;-91
2022/07/06 09:33:12;;;;;;;;;;;;;;;32.07;39.84;99098.81;4660695;30;20376;-91
2022/07/06 09:35:42;;;;;;;;;;;;;;;31.53;41.12;99089.94;4665940;30;19931;-95
2022/07/06 09:38:11;;;;;;;;;;;;;;;31.45;41.15;99087.50;4643870;30;19979;-88
2022/07/06 09:40:42;;;;;;;;;;;;;;;31.61;41.40;99096.41;4654105;30;19932;-93
2022/07/06 09:43:11;;;;;;;;;;;;;;;31.66;40.07;99098.03;4644362;30;19936;-91
2022/07/06 09:45:42;;;;;;;;;;;;;;;31.44;40.75;99088.66;4644403;30;19971;-90
2022/07/06 09:48:13;;;;;;;;;;;;;;;31.88;39.55;99085.91;4650364;30;19938;-93
2022/07/06 09:50:41;;;;;;;;;;;;;;;32.05;39.51;99070.50;4646413;30;20393;-94
2022/07/06 09:53:10;;;;;;;;;;;;;;;32.98;38.57;99073.81;4633221;30;19939;-92
2022/07/06 09:55:46;;;;;;;;;;;;;;;33.52;37.32;99076.00;4649697;30;19932;-88
2022/07/06 09:58:16;;;;;;;;;;;;;;;32.21;38.64;99084.19;4659812;30;19974;-92
2022/07/06 10:00:58;;;;;;;;;;;;;;;31.66;39.74;99095.25;4652968;30;20081;-91
2022/07/06 10:03:25;;;;;;;;;;;;;;;31.14;39.85;99078.34;4655654;30;20038;-90
2022/07/06 10:05:52;;;;;;;;;;;;;;;31.82;39.09;99073.47;4671550;30;20072;-90
2022/07/06 10:08:19;;;;;;;;;;;;;;;32.95;37.68;99062.66;4686110;30;19946;-90
2022/07/06 10:10:48;;;;;;;;;;;;;;;33.24;37.17;99057.97;4665308;30;19932;-92
2022/07/06 10:13:16;;;;;;;;;;;;;;;32.45;37.89;99065.19;4666040;30;19938;-91
2022/07/06 10:15:44;;;;;;;;;;;;;;;32.98;36.26;99061.84;4669256;30;19935;-90
2022/07/06 10:18:11;;;;;;;;;;;;;;;33.49;35.65;99048.81;4685270;30;19931;-90
2022/07/06 10:20:39;;;;;;;;;;;;;;;33.74;35.79;99048.88;4686195;30;19931;-90
2022/07/06 10:23:06;;;;;;;;;;;;;;;33.92;35.13;99049.66;4691683;30;20030;-90
2022/07/06 10:25:34;;;;;;;;;;;;;;;32.83;36.57;99057.41;4682513;30;19938;-92
2022/07/06 10:28:01;;;;;;;;;;;;;;;31.84;38.37;99048.78;4697544;30;20022;-91
2022/07/06 10:30:28;;;;;;;;;;;;;;;31.82;37.31;99065.09;4682607;30;20355;-91
2022/07/06 10:32:56;;;;;;;;;;;;;;;30.72;39.58;99061.91;4679059;30;19998;-90
2022/07/06 10:35:24;;;;;;;;;;;;;;;30.68;40.32;99059.84;4694036;30;20395;-89
2022/07/06 10:38:05;;;;;;;;;;;;;;;31.76;38.38;99052.72;4672568;30;19931;-89
2022/07/06 10:43:22;;;;;;;;;;;;;;;31.42;38.98;99050.00;4687470;30;20392;-90
2022/07/06 10:45:52;;;;;;;;;;;;;;;31.37;39.54;99036.38;4672803;30;20037;-90
2022/07/06 10:48:20;;;;;;;;;;;;;;;30.59;39.99;99047.41;4674751;30;19982;-90
2022/07/06 10:50:50;;;;;;;;;;;;;;;29.81;40.75;99033.94;4673628;30;20395;-90
2022/07/06 10:53:19;;;;;;;;;;;;;;;29.43;42.14;99040.41;4678576;30;19940;-90
2022/07/06 10:55:47;;;;;;;;;;;;;;;29.67;41.25;99025.34;4674368;30;20323;-89
2022/07/06 10:58:34;;;;;;;;;;;;;;;30.32;40.13;99033.53;4675296;30;19931;-90
2022/07/06 11:01:01;;;;;;;;;;;;;;;31.12;38.26;99035.31;4683755;30;19931;-93
2022/07/06 11:03:32;;;;;;;;;;;;;;;31.65;37.66;99037.84;4666019;30;19979;-92
2022/07/06 11:06:00;;;;;;;;;;;;;;;31.31;38.41;99038.72;4679256;30;19983;-92
2022/07/06 11:08:59;;;;;;;;;;;;;;;30.84;39.54;99036.59;4681846;30;20370;-88
2022/07/06 11:11:32;;;;;;;;;;;;;;;30.37;41.02;99035.97;4683867;30;19931;-88
2022/07/06 11:14:05;;;;;;;;;;;;;;;29.99;41.65;99028.63;4685645;30;19931;-88
2022/07/06 11:16:47;;;;;;;;;;;;;;;30.78;40.27;99027.75;4676328;30;20030;-88
2022/07/06 11:19:16;;;;;;;;;;;;;;;32.77;36.97;99021.47;4668751;30;20406;-93
2022/07/06 11:21:43;;;;;;;;;;;;;;;34.15;35.58;99017.66;4668854;30;19931;-90
2022/07/06 11:24:11;;;;;;;;;;;;;;;35.12;33.82;99024.53;4687936;30;20392;-88
2022/07/06 11:26:38;;;;;;;;;;;;;;;35.69;32.50;99020.53;4691390;30;20293;-87
2022/07/06 11:29:10;;;;;;;;;;;;;;;35.72;32.06;99016.09;4684277;30;19937;-90
2022/07/06 11:31:52;;;;;;;;;;;;;;;35.12;32.00;99012.50;4694917;30;19932;-87
2022/07/06 11:34:21;;;;;;;;;;;;;;;35.48;32.11;99012.28;4676109;30;19963;-89
2022/07/06 11:36:56;;;;;;;;;;;;;;;36.05;30.54;99011.78;4696081;30;19961;-90
2022/07/06 11:39:27;;;;;;;;;;;;;;;36.13;31.04;99021.75;4684143;30;19931;-89
2022/07/06 11:41:57;;;;;;;;;;;;;;;37.24;30.23;99019.63;4681487;30;19981;-88
2022/07/06 11:44:25;;;;;;;;;;;;;;;36.92;30.08;99012.41;4700019;30;19962;-89
2022/07/06 11:46:54;;;;;;;;;;;;;;;35.89;31.08;99025.59;4693534;30;20398;-88
2022/07/06 11:49:21;;;;;;;;;;;;;;;34.80;32.32;99007.06;4692483;30;19931;-89
2022/07/06 11:51:48;;;;;;;;;;;;;;;33.93;33.34;99011.25;4693392;30;19938;-91
2022/07/06 11:54:19;;;;;;;;;;;;;;;33.73;33.85;99008.06;4700752;30;19937;-90
2022/07/06 11:56:49;;;;;;;;;;;;;;;33.03;34.85;98995.22;4667832;30;19931;-92
2022/07/06 11:59:31;;;;;;;;;;;;;;;33.05;36.01;98999.63;4667177;30;20026;-91
2022/07/06 12:02:16;;;;;;;;;;;;;;;32.45;37.41;99037.25;4656592;30;19931;-92
2022/07/06 12:04:44;;;;;;;;;;;;;;;31.32;39.37;99008.84;4662738;30;19931;-91
2022/07/06 12:07:13;;;;;;;;;;;;;;;30.36;41.85;99005.72;4688206;30;19971;-90
2022/07/06 12:09:44;;;;;;;;;;;;;;;30.19;41.93;99013.44;4672568;30;20049;-91
2022/07/06 12:12:12;;;;;;;;;;;;;;;30.23;41.74;99000.38;4675151;30;19972;-91
2022/07/06 12:14:40;;;;;;;;;;;;;;;30.76;40.38;98985.53;4675313;30;19994;-88
2022/07/06 12:17:08;;;;;;;;;;;;;;;31.44;38.52;99000.22;4673093;30;20445;-89
2022/07/06 12:19:36;;;;;;;;;;;;;;;31.39;38.21;99000.56;4665432;30;19939;-90
2022/07/06 12:22:04;;;;;;;;;;;;;;;31.69;37.16;99002.44;4678477;30;19934;-91
2022/07/06 12:24:32;;;;;;;;;;;;;;;31.98;36.80;98995.09;4680234;30;19935;-89
2022/07/06 12:27:24;;;;;;;;;;;;;;;34.12;33.94;98988.47;4669867;30;19932;-88
2022/07/06 12:29:51;;;;;;;;;;;;;;;35.83;31.04;98990.72;4681417;30;20045;-95
2022/07/06 12:32:20;;;;;;;;;;;;;;;36.91;29.60;99004.41;4654518;30;19981;-94
2022/07/06 12:34:47;;;;;;;;;;;;;;;37.03;28.37;98989.75;4655120;30;19931;-92
2022/07/06 12:37:15;;;;;;;;;;;;;;;36.32;28.27;98985.84;4676565;30;20324;-90
2022/07/06 12:39:43;;;;;;;;;;;;;;;34.71;30.75;98993.47;4683238;30;19931;-90
2022/07/06 12:42:13;;;;;;;;;;;;;;;33.97;31.72;98987.66;4676454;30;19981;-90
2022/07/06 12:44:51;;;;;;;;;;;;;;;34.18;31.45;98997.25;4682383;30;19931;-90
2022/07/06 12:47:24;;;;;;;;;;;;;;;34.94;31.19;99002.19;4680846;30;19954;-92
2022/07/06 12:50:05;;;;;;;;;;;;;;;34.37;31.55;99010.81;4665163;30;20396;-91
2022/07/06 12:52:36;;;;;;;;;;;;;;;32.95;33.33;99003.97;4671161;30;19931;-91
2022/07/06 12:55:03;;;;;;;;;;;;;;;32.77;34.76;99021.47;4679977;30;19965;-93
2022/07/06 12:57:47;;;;;;;;;;;;;;;32.17;36.09;99014.34;4664880;30;20554;-90
2022/07/06 13:00:16;;;;;;;;;;;;;;;32.64;36.09;99006.25;4668963;30;19931;-92
2022/07/06 13:02:44;;;;;;;;;;;;;;;34.50;32.81;98991.53;4685405;30;20031;-92
2022/07/06 13:05:31;;;;;;;;;;;;;;;35.67;31.13;98999.72;4689299;30;19939;-94
2022/07/06 13:07:59;;;;;;;;;;;;;;;35.68;31.48;99004.09;4696511;30;20063;-94
2022/07/06 13:10:30;;;;;;;;;;;;;;;35.65;31.67;99002.91;4688072;30;19939;-93
2022/07/06 13:13:04;;;;;;;;;;;;;;;34.56;33.09;99005.94;4686907;30;19943;-93
2022/07/06 13:15:33;;;;;;;;;;;;;;;34.13;34.18;98992.06;4662401;30;19973;-95
2022/07/06 13:18:00;;;;;;;;;;;;;;;33.24;35.86;98994.44;4661133;30;19935;-92
2022/07/06 13:20:29;;;;;;;;;;;;;;;32.49;37.66;99007.38;4689972;30;19931;-95
2022/07/06 13:22:58;;;;;;;;;;;;;;;33.38;36.30;98992.88;4663212;30;19931;-94
2022/07/06 13:25:25;;;;;;;;;;;;;;;34.51;34.69;98995.94;4679043;30;20378;-94
2022/07/06 13:27:55;;;;;;;;;;;;;;;34.90;33.49;98995.00;4692543;30;20374;-93
2022/07/06 13:30:25;;;;;;;;;;;;;;;35.34;32.70;98977.50;4691535;30;19930;-93
2022/07/06 13:32:58;;;;;;;;;;;;;;;35.12;32.99;98974.06;4700499;30;19942;-94
2022/07/06 13:35:25;;;;;;;;;;;;;;;35.97;32.58;98973.75;4700954;30;19931;-94
2022/07/06 13:37:53;;;;;;;;;;;;;;;37.13;30.12;98974.78;4621592;30;19932;-94
2022/07/06 13:40:22;;;;;;;;;;;;;;;37.42;29.92;98969.47;4646754;30;19936;-94
2022/07/06 13:42:49;;;;;;;;;;;;;;;37.81;29.40;98976.50;4632745;30;19979;-95
2022/07/06 13:45:18;;;;;;;;;;;;;;;37.81;28.93;98972.88;4622534;30;19999;-94
2022/07/06 13:47:45;;;;;;;;;;;;;;;36.84;30.14;98982.78;4646608;30;19932;-93
2022/07/06 13:50:12;;;;;;;;;;;;;;;37.15;29.64;98977.13;4648812;30;19932;-94
2022/07/06 13:52:44;;;;;;;;;;;;;;;36.66;29.87;98972.56;4652395;30;19932;-93
2022/07/06 13:55:11;;;;;;;;;;;;;;;36.82;30.12;98976.81;4633876;30;19938;-93
2022/07/06 13:57:42;;;;;;;;;;;;;;;36.70;29.64;98955.69;4646257;30;19932;-93
2022/07/06 14:00:09;;;;;;;;;;;;;;;36.86;29.81;98972.72;4620769;30;19932;-94
2022/07/06 14:02:37;;;;;;;;;;;;;;;36.15;30.51;98965.16;4646870;30;19932;-92
2022/07/06 14:05:05;;;;;;;;;;;;;;;34.67;33.01;98954.28;4648687;30;19932;-93
2022/07/06 14:07:35;;;;;;;;;;;;;;;33.40;35.14;98948.53;4635910;30;19931;-93
2022/07/06 14:10:02;;;;;;;;;;;;;;;32.97;35.80;98956.84;4687105;30;20331;-94
2022/07/06 14:12:29;;;;;;;;;;;;;;;32.48;36.59;98964.66;4703460;30;19930;-91
2022/07/06 14:14:56;;;;;;;;;;;;;;;32.45;36.88;98961.84;4688999;30;20300;-93
2022/07/06 14:17:24;;;;;;;;;;;;;;;32.31;36.96;98976.53;4675087;30;20035;-93
2022/07/06 14:19:54;;;;;;;;;;;;;;;31.87;37.70;98983.03;4691686;30;20004;-92
2022/07/06 14:22:21;;;;;;;;;;;;;;;31.73;38.30;98959.44;4694972;30;19961;-95
2022/07/06 14:24:51;;;;;;;;;;;;;;;31.79;37.61;98961.84;4675244;30;19931;-94
2022/07/06 14:27:20;;;;;;;;;;;;;;;32.68;36.28;98956.75;4690251;30;19982;-95
2022/07/06 14:30:12;;;;;;;;;;;;;;;33.58;34.47;98968.13;4705094;30;19989;-95
2022/07/06 14:32:52;;;;;;;;;;;;;;;33.97;33.91;98954.06;4661287;30;19935;-94
2022/07/06 14:35:24;;;;;;;;;;;;;;;34.50;33.51;98960.72;4679373;24;19931;-92
2022/07/06 14:38:01;;;;;;;;;;;;;;;35.39;32.79;98951.78;4748239;30;19931;-92
2022/07/06 14:40:30;;;;;;;;;;;;;;;36.05;32.09;98937.97;4748454;24;19917;-94
2022/07/06 14:42:58;;;;;;;;;;;;;;;36.18;31.38;98930.63;4721883;30;19937;-95
2022/07/06 14:45:27;;;;;;;;;;;;;;;36.50;30.38;98941.47;4715639;24;19941;-94
2022/07/06 14:47:57;;;;;;;;;;;;;;;37.23;29.54;98942.06;4716732;30;19989;-94
2022/07/06 14:53:20;;;;;;;;;;;;;;;37.01;29.34;98952.81;4746644;30;19936;-92
2022/07/06 14:56:29;;;;;;;;;;;;;;;36.85;29.10;98945.03;4755256;24;20593;-95
2022/07/06 14:59:00;;;;;;;;;;;;;;;36.17;29.90;98943.88;4712321;30;19937;-91
2022/07/06 15:01:51;;;;;;;;;;;;;;;36.59;29.65;98944.59;4728893;30;20421;-89
2022/07/06 15:04:24;;;;;;;;;;;;;;;37.11;28.95;98942.66;4725537;30;19934;-89
2022/07/06 15:06:51;;;;;;;;;;;;;;;36.09;30.25;98945.19;4719116;30;19984;-91